Terminal Aerodrome Forecast
Issued by NWS

Home | Current Version | Previous Version | Text Only | Print | Product List | Glossary Off
Versions: 1 2 3 4 5 6 7 8 9 10 11 12 13 14 15 16 17 18 19 20 21 22 23 24 25 26 27 28 29 30 31 32 33

000
FTUS43 KGRB 302300
TAFRHI
TAF
KRHI 302321Z 3100/3124 28007KT P6SM VCTS SCT050CB BKN080
     FM310200 25003KT P6SM SCT050 SCT080
     FM310600 VRB03KT 6SM BR SCT100
      TEMPO 3107/3111 1 1/2SM BR SCT005
     FM311400 30006KT P6SM SCT030 SCT100=

USA.gov is the U.S. government's official web portal to all federal, state and local government web resources and services.